createdAt,value
2023-07-16T00:01:07.464Z,14.80
2023-07-16T00:03:37.139Z,14.84
2023-07-16T00:06:07.006Z,14.87
2023-07-16T00:08:36.743Z,14.86
2023-07-16T00:11:06.714Z,14.85
2023-07-16T00:13:36.420Z,14.80
2023-07-16T00:16:06.730Z,14.84
2023-07-16T00:18:36.377Z,14.93
2023-07-16T00:21:05.859Z,15.04
2023-07-16T00:23:35.772Z,15.18
2023-07-16T00:26:05.334Z,15.40
2023-07-16T00:28:34.818Z,15.59
2023-07-16T00:31:04.583Z,15.75
2023-07-16T00:33:35.884Z,15.80
2023-07-16T00:36:05.286Z,15.87
2023-07-16T00:38:34.636Z,15.93
2023-07-16T00:41:04.134Z,16.01
2023-07-16T00:43:33.036Z,15.94
2023-07-16T00:46:02.115Z,15.89
2023-07-16T00:48:31.638Z,15.79
2023-07-16T00:50:59.971Z,15.58
2023-07-16T00:53:29.500Z,15.47
2023-07-16T00:55:59.006Z,15.39
2023-07-16T00:58:28.325Z,15.33
2023-07-16T01:00:58.467Z,15.33
2023-07-16T01:03:27.717Z,15.40
2023-07-16T01:06:11.204Z,15.43
2023-07-16T01:08:47.340Z,15.40
2023-07-16T01:11:15.159Z,15.38
2023-07-16T01:13:44.964Z,15.42
2023-07-16T01:16:24.300Z,15.51
2023-07-16T01:18:54.168Z,15.47
2023-07-16T01:21:23.941Z,15.42
2023-07-16T01:23:58.026Z,15.36
2023-07-16T01:26:51.683Z,15.26
2023-07-16T01:29:29.426Z,15.23
2023-07-16T01:31:59.079Z,15.29
2023-07-16T01:34:28.298Z,15.25
2023-07-16T01:36:57.639Z,15.27
2023-07-16T01:39:26.811Z,15.25
2023-07-16T01:41:56.798Z,15.28
2023-07-16T01:44:26.301Z,15.30
2023-07-16T01:47:13.512Z,15.36
2023-07-16T01:49:44.247Z,15.26
2023-07-16T01:52:14.022Z,15.22
2023-07-16T01:54:43.416Z,15.16
2023-07-16T01:57:13.090Z,15.16
2023-07-16T01:59:42.444Z,15.13
2023-07-16T02:02:12.176Z,15.14
2023-07-16T02:04:41.151Z,15.20
2023-07-16T02:07:10.633Z,15.33
2023-07-16T02:09:39.804Z,15.46
2023-07-16T02:12:09.602Z,15.63
2023-07-16T02:14:39.158Z,15.63
2023-07-16T02:17:08.979Z,15.73
2023-07-16T02:19:38.426Z,15.75
2023-07-16T02:22:08.206Z,15.81
2023-07-16T02:24:37.322Z,15.90
2023-07-16T02:27:08.357Z,15.87
2023-07-16T02:29:37.289Z,15.98
2023-07-16T02:32:07.362Z,16.01
2023-07-16T02:34:36.667Z,16.06
2023-07-16T02:37:06.787Z,16.17
2023-07-16T02:39:36.135Z,16.28
2023-07-16T02:42:05.376Z,16.26
2023-07-16T02:44:34.848Z,16.13
2023-07-16T02:47:06.579Z,16.06
2023-07-16T02:49:36.579Z,16.04
2023-07-16T02:52:09.184Z,16.03
2023-07-16T02:54:38.811Z,15.97
2023-07-16T02:57:08.570Z,15.88
2023-07-16T02:59:37.659Z,15.99
2023-07-16T03:02:07.200Z,16.04
2023-07-16T03:04:36.748Z,16.00
2023-07-16T03:07:07.537Z,16.01
2023-07-16T03:09:36.750Z,15.99
2023-07-16T03:12:11.202Z,15.98
2023-07-16T03:14:40.221Z,16.02
2023-07-16T03:17:09.697Z,16.12
2023-07-16T03:19:39.561Z,16.17
2023-07-16T03:22:13.791Z,16.15
2023-07-16T03:24:43.381Z,16.26
2023-07-16T03:27:18.734Z,16.24
2023-07-16T03:29:54.592Z,16.27
2023-07-16T03:32:29.339Z,16.21
2023-07-16T03:35:10.402Z,16.10
2023-07-16T03:37:39.376Z,16.16
2023-07-16T03:40:19.931Z,16.19
2023-07-16T03:42:49.802Z,16.26
2023-07-16T03:45:19.337Z,16.26
2023-07-16T03:47:48.676Z,16.28
2023-07-16T03:50:18.009Z,16.25
2023-07-16T03:52:47.529Z,16.28
2023-07-16T03:55:17.116Z,16.25
2023-07-16T03:57:46.268Z,16.32
2023-07-16T04:00:16.379Z,16.43
2023-07-16T04:02:55.362Z,16.53
2023-07-16T04:05:25.105Z,16.53
2023-07-16T04:07:54.917Z,16.49
2023-07-16T04:10:24.506Z,16.54
2023-07-16T04:12:54.417Z,16.56
2023-07-16T04:15:24.367Z,16.66
2023-07-16T04:17:54.238Z,16.76
2023-07-16T04:20:24.220Z,16.85
2023-07-16T04:22:54.040Z,16.92
2023-07-16T04:25:23.834Z,16.93
2023-07-16T04:27:53.353Z,16.97
2023-07-16T04:30:24.107Z,16.97
2023-07-16T04:32:53.938Z,17.02
2023-07-16T04:35:23.646Z,17.02
2023-07-16T04:37:53.062Z,17.05
2023-07-16T04:40:22.563Z,17.06
2023-07-16T04:42:52.286Z,17.14
2023-07-16T04:45:21.623Z,17.29
2023-07-16T04:47:51.635Z,17.43
2023-07-16T04:50:21.401Z,17.51
2023-07-16T04:52:51.205Z,17.56
2023-07-16T04:55:20.882Z,17.66
2023-07-16T04:57:50.562Z,17.78
2023-07-16T05:00:20.221Z,17.76
2023-07-16T05:02:49.957Z,17.69
2023-07-16T05:05:20.192Z,17.72
2023-07-16T05:07:49.652Z,17.71
2023-07-16T05:10:20.328Z,17.69
2023-07-16T05:12:49.984Z,17.71
2023-07-16T05:15:19.964Z,17.77
2023-07-16T05:17:49.700Z,17.79
2023-07-16T05:20:19.640Z,17.84
2023-07-16T05:22:50.348Z,17.94
2023-07-16T05:25:19.810Z,18.03
2023-07-16T05:27:49.378Z,18.02
2023-07-16T05:30:19.813Z,18.15
2023-07-16T05:32:49.538Z,18.14
2023-07-16T05:35:19.713Z,18.05
2023-07-16T05:37:49.367Z,18.03
2023-07-16T05:40:19.377Z,18.08
2023-07-16T05:42:49.054Z,18.13
2023-07-16T05:45:19.101Z,18.17
2023-07-16T05:47:48.861Z,18.22
2023-07-16T05:50:18.967Z,18.30
2023-07-16T05:52:49.915Z,18.39
2023-07-16T05:55:20.379Z,18.46
2023-07-16T05:57:49.798Z,18.38
2023-07-16T06:00:19.508Z,18.40
2023-07-16T06:02:49.416Z,18.50
2023-07-16T06:05:19.811Z,18.61
2023-07-16T06:07:49.717Z,18.72
2023-07-16T06:10:19.658Z,18.79
2023-07-16T06:12:49.440Z,18.85
2023-07-16T06:15:18.969Z,18.94
2023-07-16T06:17:48.549Z,19.04
2023-07-16T06:20:18.906Z,19.20
2023-07-16T06:22:48.746Z,19.27
2023-07-16T06:25:18.825Z,19.30
2023-07-16T06:27:48.398Z,19.39
2023-07-16T06:30:18.560Z,19.53
2023-07-16T06:32:48.113Z,19.65
2023-07-16T06:35:17.873Z,19.70
2023-07-16T06:37:49.036Z,19.80
2023-07-16T06:40:19.226Z,19.81
2023-07-16T06:42:49.061Z,19.93
2023-07-16T06:45:19.954Z,20.15
2023-07-16T06:47:51.163Z,20.31
2023-07-16T06:50:20.929Z,20.36
2023-07-16T06:52:50.808Z,20.41
2023-07-16T06:55:20.439Z,20.22
2023-07-16T06:57:50.425Z,20.10
2023-07-16T07:00:23.254Z,20.09
2023-07-16T07:02:53.771Z,20.00
2023-07-16T07:05:24.010Z,20.04
2023-07-16T07:07:53.345Z,20.08
2023-07-16T07:10:23.492Z,20.15
2023-07-16T07:12:53.445Z,20.22
2023-07-16T07:15:23.418Z,20.32
2023-07-16T07:17:53.970Z,20.40
2023-07-16T07:20:23.523Z,20.42
2023-07-16T07:22:53.461Z,20.55
2023-07-16T07:25:23.017Z,20.71
2023-07-16T07:27:52.613Z,20.89
2023-07-16T07:30:22.459Z,20.94
2023-07-16T07:32:52.346Z,20.98
2023-07-16T07:35:21.882Z,21.13
2023-07-16T07:37:51.911Z,21.29
2023-07-16T07:40:21.911Z,21.55
2023-07-16T07:42:52.106Z,21.71
2023-07-16T07:45:21.957Z,21.76
2023-07-16T07:47:51.462Z,22.01
2023-07-16T07:50:21.353Z,22.16
2023-07-16T07:52:51.171Z,22.36
2023-07-16T07:55:20.885Z,22.52
2023-07-16T07:57:51.014Z,22.60
2023-07-16T08:00:21.105Z,22.60
2023-07-16T08:02:51.009Z,22.60
2023-07-16T08:05:21.668Z,22.66
2023-07-16T08:07:51.149Z,22.56
2023-07-16T08:10:21.718Z,22.76
2023-07-16T08:12:51.466Z,22.80
2023-07-16T08:15:21.372Z,22.73
2023-07-16T08:17:51.284Z,22.59
2023-07-16T08:20:21.430Z,22.60
2023-07-16T08:22:51.095Z,22.82
2023-07-16T08:25:21.248Z,22.94
2023-07-16T08:27:50.891Z,22.98
2023-07-16T08:30:20.900Z,23.11
2023-07-16T08:32:50.371Z,23.25
2023-07-16T08:35:21.836Z,23.50
2023-07-16T08:37:51.519Z,23.58
2023-07-16T08:40:22.463Z,23.68
2023-07-16T08:42:52.402Z,23.81
2023-07-16T08:45:23.584Z,24.09
2023-07-16T08:47:53.413Z,24.23
2023-07-16T08:50:24.342Z,24.12
2023-07-16T08:52:53.822Z,24.10
2023-07-16T08:55:23.778Z,23.93
2023-07-16T08:57:53.577Z,23.80
2023-07-16T09:00:24.530Z,23.75
2023-07-16T09:02:55.295Z,23.55
2023-07-16T09:05:39.041Z,23.47
2023-07-16T09:08:09.892Z,23.42
2023-07-16T09:10:40.031Z,23.32
2023-07-16T09:13:09.567Z,23.23
2023-07-16T09:15:41.158Z,23.23
2023-07-16T09:18:12.506Z,23.17
2023-07-16T09:20:42.816Z,23.15
2023-07-16T09:23:12.158Z,22.97
2023-07-16T09:25:42.849Z,22.77
2023-07-16T09:28:12.641Z,22.74
2023-07-16T09:30:42.398Z,22.66
2023-07-16T09:33:21.613Z,22.58
2023-07-16T09:35:52.158Z,22.47
2023-07-16T09:38:21.684Z,22.43
2023-07-16T09:40:51.652Z,22.41
2023-07-16T09:43:22.964Z,22.44
2023-07-16T09:45:53.011Z,22.37
2023-07-16T09:48:22.600Z,22.35
2023-07-16T09:50:54.618Z,22.38
2023-07-16T09:53:27.777Z,22.41
2023-07-16T09:55:59.165Z,22.38
2023-07-16T09:58:28.067Z,22.41
2023-07-16T10:00:57.669Z,22.38
2023-07-16T10:03:27.306Z,22.42
2023-07-16T10:05:56.636Z,22.36
2023-07-16T10:08:26.362Z,22.26
2023-07-16T10:10:58.944Z,22.32
2023-07-16T10:13:29.493Z,22.36
2023-07-16T10:16:00.063Z,22.38
2023-07-16T10:18:33.938Z,22.42
2023-07-16T10:21:09.225Z,22.48
2023-07-16T10:23:43.309Z,22.45
2023-07-16T10:26:18.271Z,22.54
2023-07-16T10:28:49.817Z,22.62
2023-07-16T10:31:28.114Z,22.71
2023-07-16T10:34:02.248Z,22.87
2023-07-16T10:36:32.155Z,23.13
2023-07-16T10:39:05.893Z,23.15
2023-07-16T10:41:34.736Z,23.21
2023-07-16T10:44:04.741Z,23.25
2023-07-16T10:46:35.299Z,23.21
2023-07-16T10:49:05.090Z,23.19
2023-07-16T10:51:34.661Z,23.12
2023-07-16T10:54:07.107Z,23.04
2023-07-16T10:56:39.730Z,22.89
2023-07-16T10:59:13.193Z,22.71
2023-07-16T11:01:43.587Z,22.71
2023-07-16T11:04:13.015Z,22.91
2023-07-16T11:06:42.623Z,23.16
2023-07-16T11:09:12.685Z,23.41
2023-07-16T11:11:42.561Z,23.48
2023-07-16T11:14:12.132Z,23.68
2023-07-16T11:16:41.833Z,23.98
2023-07-16T11:19:11.460Z,24.14
2023-07-16T11:21:41.000Z,24.28
2023-07-16T11:24:17.189Z,24.46
2023-07-16T11:26:53.799Z,24.63
2023-07-16T11:29:24.122Z,24.77
2023-07-16T11:31:54.734Z,24.85
2023-07-16T11:34:24.598Z,25.03
2023-07-16T11:36:54.373Z,25.07
2023-07-16T11:39:23.434Z,25.08
2023-07-16T11:42:00.015Z,25.09
2023-07-16T11:44:38.618Z,25.13
2023-07-16T11:47:08.556Z,25.33
2023-07-16T11:49:37.959Z,25.63
2023-07-16T11:52:10.192Z,25.74
2023-07-16T11:54:39.904Z,25.68
2023-07-16T11:57:10.153Z,25.83
2023-07-16T11:59:39.579Z,25.95
2023-07-16T12:02:09.600Z,26.06
2023-07-16T12:04:39.032Z,25.97
2023-07-16T12:07:09.658Z,26.02
2023-07-16T12:09:39.253Z,25.96
2023-07-16T12:12:11.563Z,25.89
2023-07-16T12:14:41.212Z,25.73
2023-07-16T12:17:10.691Z,25.63
2023-07-16T12:19:40.577Z,25.49
2023-07-16T12:22:10.332Z,25.39
2023-07-16T12:24:40.088Z,25.33
2023-07-16T12:27:10.367Z,25.27
2023-07-16T12:29:40.634Z,25.11
2023-07-16T12:32:11.257Z,24.96
2023-07-16T12:34:41.039Z,24.79
2023-07-16T12:37:10.693Z,24.69
2023-07-16T12:39:41.255Z,24.73
2023-07-16T12:42:11.069Z,24.86
2023-07-16T12:44:40.542Z,24.80
2023-07-16T12:47:10.316Z,24.78
2023-07-16T12:49:40.039Z,24.67
2023-07-16T12:52:10.563Z,24.66
2023-07-16T12:54:40.739Z,24.74
2023-07-16T12:57:10.340Z,24.70
2023-07-16T12:59:39.712Z,24.64
2023-07-16T13:02:09.567Z,24.71
2023-07-16T13:04:39.332Z,24.79
2023-07-16T13:07:09.141Z,24.76
2023-07-16T13:09:38.877Z,24.70
2023-07-16T13:12:10.426Z,24.71
2023-07-16T13:14:40.224Z,24.78
2023-07-16T13:17:10.131Z,24.82
2023-07-16T13:19:39.826Z,24.81
2023-07-16T13:22:09.373Z,24.80
2023-07-16T13:24:39.776Z,24.87
2023-07-16T13:27:11.878Z,24.88
2023-07-16T13:29:41.467Z,24.73
2023-07-16T13:32:11.489Z,24.59
2023-07-16T13:34:41.310Z,24.46
2023-07-16T13:37:11.371Z,24.40
2023-07-16T13:39:41.217Z,24.35
2023-07-16T13:42:22.642Z,24.32
2023-07-16T13:44:53.553Z,24.13
2023-07-16T13:47:23.500Z,24.14
2023-07-16T13:49:53.691Z,24.15
2023-07-16T13:52:23.091Z,24.25
2023-07-16T13:54:52.996Z,24.22
2023-07-16T13:57:22.720Z,24.09
2023-07-16T13:59:52.600Z,24.07
2023-07-16T14:02:22.034Z,24.17
2023-07-16T14:04:51.639Z,24.02
2023-07-16T14:07:22.215Z,23.99
2023-07-16T14:09:52.046Z,23.98
2023-07-16T14:12:21.337Z,23.96
2023-07-16T14:14:50.776Z,23.89
2023-07-16T14:17:20.791Z,23.91
2023-07-16T14:19:52.110Z,23.96
2023-07-16T14:22:23.271Z,23.91
2023-07-16T14:24:52.847Z,23.84
2023-07-16T14:27:22.508Z,23.87
2023-07-16T14:30:05.161Z,23.84
2023-07-16T14:32:36.861Z,23.90
2023-07-16T14:35:18.645Z,23.98
2023-07-16T14:37:55.435Z,24.00
2023-07-16T14:40:25.309Z,23.99
2023-07-16T14:42:54.772Z,23.95
2023-07-16T14:45:24.427Z,23.90
2023-07-16T14:47:54.415Z,23.91
2023-07-16T14:50:25.501Z,23.84
2023-07-16T14:52:56.098Z,23.82
2023-07-16T14:55:25.763Z,23.79
2023-07-16T14:57:55.835Z,23.89
2023-07-16T15:00:26.309Z,23.86
2023-07-16T15:02:56.319Z,23.92
2023-07-16T15:05:26.050Z,23.86
2023-07-16T15:07:55.779Z,23.84
2023-07-16T15:10:25.448Z,23.79
2023-07-16T15:12:55.195Z,23.79
2023-07-16T15:15:25.021Z,23.73
2023-07-16T15:17:54.664Z,23.61
2023-07-16T15:20:25.657Z,23.55
2023-07-16T15:22:55.541Z,23.52
2023-07-16T15:25:26.584Z,23.52
2023-07-16T15:27:56.544Z,23.52
2023-07-16T15:30:26.248Z,23.43
2023-07-16T15:32:55.697Z,23.41
2023-07-16T15:35:25.393Z,23.39
2023-07-16T15:37:55.253Z,23.29
2023-07-16T15:40:24.661Z,23.20
2023-07-16T15:42:55.071Z,23.15
2023-07-16T15:45:24.991Z,22.98
2023-07-16T15:47:58.889Z,22.80
2023-07-16T15:50:29.706Z,22.68
2023-07-16T15:52:59.166Z,22.53
2023-07-16T15:55:29.176Z,22.41
2023-07-16T15:58:00.333Z,22.51
2023-07-16T16:00:30.030Z,22.59
2023-07-16T16:03:00.563Z,22.60
2023-07-16T16:05:31.557Z,22.59
2023-07-16T16:08:19.997Z,22.68
2023-07-16T16:10:54.511Z,22.74
2023-07-16T16:13:24.869Z,22.67
2023-07-16T16:15:54.153Z,22.66
2023-07-16T16:18:25.366Z,22.67
2023-07-16T16:20:54.936Z,22.72
2023-07-16T16:23:24.518Z,22.76
2023-07-16T16:25:54.203Z,22.74
2023-07-16T16:28:24.621Z,22.76
2023-07-16T16:30:54.450Z,22.70
2023-07-16T16:33:24.132Z,22.73
2023-07-16T16:35:53.579Z,22.73
2023-07-16T16:38:23.245Z,22.77
2023-07-16T16:40:53.049Z,22.65
2023-07-16T16:43:22.403Z,22.58
2023-07-16T16:45:52.609Z,22.61
2023-07-16T16:48:21.983Z,22.61
2023-07-16T16:50:53.710Z,22.52
2023-07-16T16:53:24.632Z,22.50
2023-07-16T16:55:54.143Z,22.48
2023-07-16T16:58:23.995Z,22.43
2023-07-16T17:00:57.370Z,22.33
2023-07-16T17:03:27.233Z,22.26
2023-07-16T17:06:01.886Z,22.17
2023-07-16T17:08:31.710Z,22.09
2023-07-16T17:11:01.336Z,22.04
2023-07-16T17:13:31.060Z,22.10
2023-07-16T17:16:00.968Z,22.14
2023-07-16T17:18:30.882Z,22.03
2023-07-16T17:21:00.676Z,21.96
2023-07-16T17:23:30.264Z,22.01
2023-07-16T17:25:59.942Z,22.09
2023-07-16T17:28:29.265Z,22.17
2023-07-16T17:31:01.892Z,22.17
2023-07-16T17:33:31.718Z,22.20
2023-07-16T17:36:01.196Z,22.29
2023-07-16T17:38:31.458Z,22.29
2023-07-16T17:41:00.856Z,22.25
2023-07-16T17:43:33.122Z,22.19
2023-07-16T17:46:03.425Z,22.01
2023-07-16T17:48:34.132Z,21.75
2023-07-16T17:51:04.139Z,21.62
2023-07-16T17:53:34.139Z,21.52
2023-07-16T17:56:04.001Z,21.42
2023-07-16T17:58:36.441Z,21.24
2023-07-16T18:01:07.329Z,21.07
2023-07-16T18:03:37.019Z,21.00
2023-07-16T18:06:06.728Z,20.88
2023-07-16T18:08:36.673Z,20.80
2023-07-16T18:11:06.108Z,20.74
2023-07-16T18:13:35.844Z,20.65
2023-07-16T18:16:06.125Z,20.51
2023-07-16T18:18:36.185Z,20.56
2023-07-16T18:21:13.269Z,20.65
2023-07-16T18:23:47.929Z,20.60
2023-07-16T18:26:18.166Z,20.42
2023-07-16T18:28:48.758Z,20.30
2023-07-16T18:31:18.659Z,20.16
2023-07-16T18:33:48.416Z,20.01
2023-07-16T18:36:18.339Z,19.86
2023-07-16T18:38:48.231Z,19.75
2023-07-16T18:41:18.436Z,19.67
2023-07-16T18:43:48.364Z,19.68
2023-07-16T18:46:18.375Z,19.65
2023-07-16T18:48:48.440Z,19.67
2023-07-16T18:51:18.333Z,19.65
2023-07-16T18:53:47.901Z,19.56
2023-07-16T18:56:18.108Z,19.49
2023-07-16T18:58:47.794Z,19.44
2023-07-16T19:01:17.710Z,19.38
2023-07-16T19:03:48.633Z,19.33
2023-07-16T19:06:18.172Z,19.36
2023-07-16T19:08:48.341Z,19.30
2023-07-16T19:11:17.745Z,19.19
2023-07-16T19:13:47.372Z,19.10
2023-07-16T19:16:17.177Z,19.06
2023-07-16T19:18:47.390Z,19.00
2023-07-16T19:21:16.929Z,18.94
2023-07-16T19:23:46.470Z,18.91
2023-07-16T19:26:16.639Z,18.96
2023-07-16T19:28:46.655Z,18.97
2023-07-16T19:31:17.307Z,18.92
2023-07-16T19:33:47.195Z,18.94
2023-07-16T19:36:17.085Z,18.90
2023-07-16T19:38:46.771Z,18.89
2023-07-16T19:41:16.978Z,18.85
2023-07-16T19:43:46.897Z,18.85
2023-07-16T19:46:16.703Z,18.90
2023-07-16T19:48:47.008Z,18.89
2023-07-16T19:51:16.926Z,18.81
2023-07-16T19:53:46.768Z,18.76
2023-07-16T19:56:16.759Z,18.70
2023-07-16T19:58:46.412Z,18.64
2023-07-16T20:01:17.124Z,18.56
2023-07-16T20:03:49.525Z,18.45
2023-07-16T20:06:19.745Z,18.38
2023-07-16T20:08:52.371Z,18.34
2023-07-16T20:11:21.976Z,18.34
2023-07-16T20:13:51.800Z,18.36
2023-07-16T20:16:21.505Z,18.37
2023-07-16T20:18:50.880Z,18.39
2023-07-16T20:21:23.024Z,18.45
2023-07-16T20:23:53.657Z,18.44
2023-07-16T20:26:23.399Z,18.45
2023-07-16T20:28:53.325Z,18.42
2023-07-16T20:31:22.888Z,18.42
2023-07-16T20:33:52.457Z,18.39
2023-07-16T20:36:22.106Z,18.32
2023-07-16T20:38:51.856Z,18.19
2023-07-16T20:41:22.219Z,18.13
2023-07-16T20:43:51.868Z,18.10
2023-07-16T20:46:21.751Z,18.07
2023-07-16T20:48:51.264Z,18.10
2023-07-16T20:51:20.891Z,18.15
2023-07-16T20:53:50.790Z,18.16
2023-07-16T20:56:20.443Z,18.19
2023-07-16T20:58:49.817Z,18.20
2023-07-16T21:01:19.810Z,18.14
2023-07-16T21:03:51.262Z,18.21
2023-07-16T21:06:20.765Z,18.20
2023-07-16T21:08:50.545Z,18.24
2023-07-16T21:11:20.794Z,18.21
2023-07-16T21:13:50.468Z,18.13
2023-07-16T21:16:20.325Z,18.15
2023-07-16T21:18:50.078Z,18.10
2023-07-16T21:21:20.341Z,18.07
2023-07-16T21:23:49.906Z,17.99
2023-07-16T21:26:19.746Z,17.94
2023-07-16T21:28:49.475Z,17.94
2023-07-16T21:31:19.560Z,17.86
2023-07-16T21:33:49.872Z,17.81
2023-07-16T21:36:19.556Z,17.79
2023-07-16T21:38:49.373Z,17.76
2023-07-16T21:41:18.967Z,17.79
2023-07-16T21:43:49.088Z,17.84
2023-07-16T21:46:19.801Z,17.82
2023-07-16T21:48:49.269Z,17.93
2023-07-16T21:51:19.285Z,17.93
2023-07-16T21:53:49.284Z,17.85
2023-07-16T21:56:19.070Z,17.83
2023-07-16T21:58:48.703Z,17.79
2023-07-16T22:01:19.769Z,17.73
2023-07-16T22:03:49.476Z,17.72
2023-07-16T22:06:19.239Z,17.78
2023-07-16T22:08:49.025Z,17.84
2023-07-16T22:11:19.133Z,17.90
2023-07-16T22:13:50.567Z,17.90
2023-07-16T22:16:20.505Z,17.88
2023-07-16T22:18:50.229Z,17.79
2023-07-16T22:21:21.712Z,17.74
2023-07-16T22:23:51.633Z,17.68
2023-07-16T22:26:22.240Z,17.64
2023-07-16T22:28:52.324Z,17.59
2023-07-16T22:31:21.935Z,17.61
2023-07-16T22:33:51.805Z,17.58
2023-07-16T22:36:21.639Z,17.60
2023-07-16T22:38:51.389Z,17.64
2023-07-16T22:41:21.066Z,17.61
2023-07-16T22:43:50.487Z,17.65
2023-07-16T22:46:20.569Z,17.67
2023-07-16T22:48:54.889Z,17.61
2023-07-16T22:51:25.070Z,17.68
2023-07-16T22:53:54.824Z,17.76
2023-07-16T22:56:25.247Z,17.65
2023-07-16T22:58:55.355Z,17.56
2023-07-16T23:01:25.056Z,17.61
2023-07-16T23:03:54.922Z,17.69
2023-07-16T23:06:24.357Z,17.78
2023-07-16T23:08:54.105Z,17.68
2023-07-16T23:11:23.796Z,17.64
2023-07-16T23:13:53.671Z,17.64
2023-07-16T23:16:23.290Z,17.67
2023-07-16T23:18:53.210Z,17.64
2023-07-16T23:21:23.000Z,17.63
2023-07-16T23:23:52.633Z,17.57
2023-07-16T23:26:22.093Z,17.55
2023-07-16T23:28:51.897Z,17.44
2023-07-16T23:31:22.028Z,17.40
2023-07-16T23:33:51.866Z,17.38
2023-07-16T23:36:21.147Z,17.37
2023-07-16T23:38:52.120Z,17.40
2023-07-16T23:41:21.578Z,17.44
2023-07-16T23:43:51.069Z,17.35
2023-07-16T23:46:21.318Z,17.34
2023-07-16T23:48:51.024Z,17.28
2023-07-16T23:51:20.870Z,17.27
2023-07-16T23:53:50.649Z,17.34
2023-07-16T23:56:20.466Z,17.29
2023-07-16T23:58:51.356Z,17.20
